Hub


Voltar

 INFORMAÇÕES METEOROLÓGICAS

METAR FOR PASX


ADDS - METARS form results

(2048 UTC 16 February 2019)
Data provider http://aviationweather.gov/metar/data/
 
METAR text: PASX 162001Z AUTO 06006KT 3SM -SN BR SCT021 M08/M11 A3028 RMK AO2 P0000 FZRANO
Conditions at: PASX (SOLDOTNA , AK, US) observed 2001 UTC 16 February 2019
Temperature: -8.0°C (18°F)
Dewpoint: -11.0°C (12°F) [RH = 79%]
Pressure (altimeter): 30.28 inches Hg (1025.5 mb)
Winds: from the ENE (60 degrees) at 7 MPH (6 knots; 3.1 m/s)
Visibility: 3 miles ( 5 km)
Ceiling: at least 12,000 feet AGL
Clouds: scattered clouds at 2100 feet AGL
Weather: -SN BR  (light snow, mist)

METAR text: PASX 161956Z AUTO 06005KT 2SM -SN BR BKN021 M09/M11 A3027 RMK AO2 SLP262 P0000 T10891106 FZRANO
Conditions at: PASX (SOLDOTNA , AK, US) observed 1956 UTC 16 February 2019
Temperature: -8.9°C (16°F)
Dewpoint: -10.6°C (13°F) [RH = 87%]
Pressure (altimeter): 30.27 inches Hg (1025.1 mb)
[Sea-level pressure: 1026.2 mb]
Winds: from the ENE (60 degrees) at 6 MPH (5 knots; 2.6 m/s)
Visibility: 2.00 miles (3.22 km)
Ceiling: 2100 feet AGL
Clouds: broken clouds at 2100 feet AGL
Weather: -SN BR  (light snow, mist)

METAR text: PASX 161949Z AUTO 04004KT 1 3/4SM -SN BR BKN023 OVC030 M09/M11 A3027 RMK AO2 P0000 FZRANO
Conditions at: PASX (SOLDOTNA , AK, US) observed 1949 UTC 16 February 2019
Temperature: -9.0°C (16°F)
Dewpoint: -11.0°C (12°F) [RH = 85%]
Pressure (altimeter): 30.27 inches Hg (1025.1 mb)
Winds: from the NE (40 degrees) at 5 MPH (4 knots; 2.1 m/s)
Visibility: 1.75 miles (2.82 km)
Ceiling: 2300 feet AGL
Clouds: broken clouds at 2300 feet AGL
overcast cloud deck at 3000 feet AGL
Weather: -SN BR  (light snow, mist)


 MAPA DO AEROPORTO


 INFORMAÇÕES DA PISTA

Pista 07 Tamanho da pista 5000 ft Largura da pista 132 ft
Elevação da pista 96 ft Ranhura da pista 0 ft Proa da pista 90
Pista 25 Tamanho da pista 5000 ft Largura da pista 132 ft
Elevação da pista 113 ft Ranhura da pista 0 ft Proa da pista 270

 FREQUÊNCIAS DO AEROPORTO

Tipo AWOS Nome AWOS 3 Frequência 135.45 MHZ
Tipo CNTR Nome ANCHORAGE Frequência 125.7 MHZ
Tipo CTAF Nome CTAF Frequência 122.5 MHZ
Tipo FSS Nome KENAI RDO Frequência 122.35 MHZ
Tipo MISC Nome TWEB Frequência 117.6 MHZ

 AUXÍLIOS DE NAVEGAÇÃO PRÓXIMOS AO AEROPORTO

Tipo NDB-DME Nome Soldotna Frequência 346 KHZ